Time;durP1;ratioP1;P1;durP2;ratioP2;P2;SDS_P1;SDS_P2;PMS_P1;PMS_P2;Temp;Humidity;BMP_temperature;BMP_pressure;BME280_temperature;BME280_humidity;BME280_pressure;Samples;Min_cycle;Max_cycle;Signal;HPM_P1;HPM_P2
2023/06/26 00:00:12;;;;;;;8.13;7.43;;;26.40;64.90;;;28.81;44.48;101242.53;5053276;28;20703;-57
2023/06/26 00:02:40;;;;;;;9.50;8.43;;;26.40;65.20;;;28.75;44.83;101238.22;5052984;28;20640;-59
2023/06/26 00:05:08;;;;;;;8.13;7.43;;;26.40;65.50;;;28.72;44.86;101238.78;5052602;28;20287;-58
2023/06/26 00:07:35;;;;;;;8.13;7.43;;;26.30;65.50;;;28.69;45.20;101239.34;5052800;28;20258;-58
2023/06/26 00:10:03;;;;;;;7.90;7.30;;;26.30;65.70;;;28.70;44.73;101233.66;5032971;28;20705;-55
2023/06/26 00:12:31;;;;;;;7.37;6.77;;;26.20;65.90;;;28.70;45.16;101230.13;5047611;28;20220;-56
2023/06/26 00:14:58;;;;;;;8.50;7.83;;;26.20;66.20;;;28.68;45.18;101224.19;5052375;28;20202;-56
2023/06/26 00:17:26;;;;;;;7.60;7.00;;;26.20;66.30;;;28.67;44.89;101231.50;5052786;28;20511;-57
2023/06/26 00:19:54;;;;;;;8.13;7.50;;;26.20;66.40;;;28.68;45.07;101226.88;5039726;28;20209;-58
2023/06/26 00:22:21;;;;;;;8.23;7.57;;;26.20;66.60;;;28.66;45.54;101229.06;5056761;28;20196;-58
2023/06/26 00:24:48;;;;;;;8.37;7.73;;;26.20;66.80;;;28.62;45.70;101219.91;5056231;28;20288;-58
2023/06/26 00:27:15;;;;;;;8.70;7.93;;;26.10;67.00;;;28.57;45.88;101226.13;5056624;28;20276;-57
2023/06/26 00:29:42;;;;;;;8.70;8.00;;;26.10;67.20;;;28.53;45.47;101226.94;5042669;28;20278;-58
2023/06/26 00:32:09;;;;;;;7.93;7.33;;;26.10;67.40;;;28.50;45.61;101224.81;5036333;28;20667;-55
2023/06/26 00:34:36;;;;;;;8.47;7.67;;;26.00;67.40;;;28.49;45.52;101221.31;5036066;28;20305;-58
2023/06/26 00:37:04;;;;;;;7.93;7.27;;;26.00;67.60;;;28.49;45.62;101218.59;5036280;28;20212;-57
2023/06/26 00:39:31;;;;;;;7.60;7.00;;;26.00;67.80;;;28.50;45.82;101219.41;5051282;28;20221;-58
2023/06/26 00:41:58;;;;;;;7.97;7.37;;;26.00;67.80;;;28.48;45.93;101222.38;5056384;28;20208;-54
2023/06/26 00:44:25;;;;;;;7.77;7.17;;;25.90;67.90;;;28.46;45.93;101219.16;5055832;28;20205;-58
2023/06/26 00:46:53;;;;;;;8.37;7.67;;;25.90;68.40;;;28.44;45.99;101221.34;5056320;28;20197;-57
2023/06/26 00:49:20;;;;;;;9.30;8.53;;;25.90;68.30;;;28.39;46.59;101218.66;5055238;28;20679;-57
2023/06/26 00:51:47;;;;;;;7.93;7.20;;;25.90;68.60;;;28.34;46.33;101220.56;5055815;28;20604;-59
2023/06/26 00:54:19;;;;;;;8.67;7.97;;;25.80;68.60;;;28.31;46.36;101211.13;5055801;28;20273;-58
2023/06/26 00:56:47;;;;;;;9.13;8.33;;;25.80;69.40;;;28.28;46.36;101205.47;5055876;28;20213;-58
2023/06/26 00:59:15;;;;;;;8.60;7.90;;;25.80;68.80;;;28.23;46.45;101208.19;5055174;28;20300;-59
2023/06/26 01:01:42;;;;;;;8.13;7.53;;;25.80;68.80;;;28.17;46.63;101202.81;5056089;28;20228;-58
2023/06/26 01:04:17;;;;;;;9.23;8.43;;;25.80;68.90;;;28.15;46.58;101193.34;5055610;28;20272;-57
2023/06/26 01:06:48;;;;;;;8.67;8.00;;;25.70;68.80;;;28.14;46.51;101192.56;5055826;28;20186;-58
2023/06/26 01:09:19;;;;;;;8.20;7.50;;;25.60;69.00;;;28.13;46.69;101199.03;5042936;28;20666;-58
2023/06/26 01:11:46;;;;;;;8.57;7.80;;;25.60;69.10;;;28.15;46.16;101186.03;5049465;28;20277;-56
2023/06/26 01:14:14;;;;;;;8.27;7.57;;;25.60;69.20;;;28.15;46.38;101186.03;5054632;28;20198;-58
2023/06/26 01:16:47;;;;;;;8.67;7.97;;;25.60;69.20;;;28.16;46.42;101176.84;5044478;28;20616;-59
2023/06/26 01:19:24;;;;;;;9.60;8.90;;;25.60;69.30;;;28.10;46.90;101174.41;5055550;28;20291;-58
2023/06/26 01:22:02;;;;;;;9.60;8.80;;;25.60;69.90;;;28.05;46.63;101167.13;5055730;28;20182;-58
2023/06/26 01:24:36;;;;;;;8.87;8.07;;;25.50;69.70;;;28.00;47.06;101167.16;5055394;28;20196;-59
2023/06/26 01:27:06;;;;;;;9.60;8.80;;;25.50;70.00;;;27.96;47.28;101166.06;5055334;28;20268;-55
2023/06/26 01:29:36;;;;;;;8.97;8.17;;;25.50;70.20;;;27.88;47.40;101169.38;5041488;28;20187;-58
2023/06/26 01:32:04;;;;;;;8.23;7.53;;;25.50;70.40;;;27.82;47.49;101170.47;5034275;28;20663;-58
2023/06/26 01:34:31;;;;;;;9.03;8.27;;;25.40;70.30;;;27.80;47.52;101171.84;5035034;28;20213;-59
2023/06/26 01:36:58;;;;;;;9.17;8.40;;;25.40;70.60;;;27.80;47.54;101163.72;5035171;28;20656;-58
2023/06/26 01:39:25;;;;;;;9.13;8.23;;;25.40;70.80;;;27.79;47.65;101159.41;5035506;28;20305;-55
2023/06/26 01:41:53;;;;;;;9.63;7.80;;;25.30;70.80;;;27.73;48.04;101158.63;5047005;28;20203;-58
2023/06/26 01:44:28;;;;;;;9.03;8.23;;;25.30;71.10;;;27.68;47.86;101158.63;5034834;28;20202;-60
2023/06/26 01:47:01;;;;;;;9.87;8.90;;;25.20;71.20;;;27.66;47.99;101147.28;5035005;28;20175;-57
2023/06/26 01:49:43;;;;;;;9.00;8.27;;;25.20;71.50;;;27.63;48.15;101149.72;5048162;28;20185;-54
2023/06/26 01:52:21;;;;;;;9.83;8.90;;;25.20;71.50;;;27.57;48.56;101146.25;5054846;28;20193;-56
2023/06/26 01:55:02;;;;;;;9.07;8.13;;;25.10;71.80;;;27.52;48.46;101140.88;5055149;28;20701;-57
2023/06/26 01:57:31;;;;;;;8.67;7.87;;;25.10;72.00;;;27.52;48.60;101143.56;5054896;28;20560;-56
2023/06/26 02:00:01;;;;;;;8.80;8.03;;;25.10;71.90;;;27.52;48.66;101138.16;5054327;28;20210;-56
2023/06/26 02:02:29;;;;;;;8.63;7.87;;;25.10;72.00;;;27.51;48.51;101141.94;5054694;28;20170;-57
2023/06/26 02:04:57;;;;;;;9.33;8.53;;;25.10;72.20;;;27.50;48.74;101134.94;5054515;28;20225;-54
2023/06/26 02:07:24;;;;;;;10.67;8.90;;;25.00;72.10;;;27.48;48.47;101131.69;5054867;28;20193;-55
2023/06/26 02:09:51;;;;;;;9.90;8.53;;;25.00;72.40;;;27.44;48.44;101133.31;5054084;28;20200;-57
2023/06/26 02:12:18;;;;;;;8.13;7.53;;;25.00;72.40;;;27.43;48.56;101129.00;5054838;28;20209;-58
2023/06/26 02:14:45;;;;;;;9.30;8.60;;;25.00;72.40;;;27.39;48.69;101123.31;5054023;28;20748;-60
2023/06/26 02:17:13;;;;;;;9.53;8.73;;;24.90;72.40;;;27.34;48.84;101125.19;5054561;28;20571;-57
2023/06/26 02:19:47;;;;;;;9.63;8.83;;;24.90;72.70;;;27.27;49.30;101116.56;5040439;28;20294;-56
2023/06/26 02:22:15;;;;;;;8.87;8.17;;;24.90;72.70;;;27.25;48.87;101121.44;5034711;28;20190;-56
2023/06/26 02:24:42;;;;;;;9.57;8.77;;;24.90;72.70;;;27.26;49.11;101112.25;5034264;28;20232;-58
2023/06/26 02:27:09;;;;;;;8.70;8.03;;;24.80;72.90;;;27.24;48.76;101109.03;5034274;28;20209;-56
2023/06/26 02:29:36;;;;;;;9.13;8.37;;;24.80;72.90;;;27.24;49.03;101114.44;5045159;28;20276;-59
2023/06/26 02:32:04;;;;;;;9.10;8.30;;;24.80;73.10;;;27.23;49.16;101105.50;5054095;28;20669;-54
2023/06/26 02:34:33;;;;;;;9.57;8.57;;;24.70;72.90;;;27.19;49.06;101101.75;5053935;28;20214;-57
2023/06/26 02:37:00;;;;;;;8.97;8.17;;;24.70;73.40;;;27.17;49.47;101100.41;5054516;28;20225;-55
2023/06/26 02:39:27;;;;;;;9.27;8.47;;;24.70;73.20;;;27.15;48.92;101094.44;5054229;28;20245;-55
2023/06/26 02:41:54;;;;;;;9.83;9.03;;;24.70;73.30;;;27.16;49.27;101096.06;5054070;28;20280;-57
2023/06/26 02:44:21;;;;;;;9.60;8.70;;;24.70;73.50;;;27.12;49.09;101103.94;5053431;28;20284;-59
2023/06/26 02:46:48;;;;;;;10.70;9.50;;;24.70;73.50;;;27.10;49.47;101099.88;5054034;28;20190;-58
2023/06/26 02:49:15;;;;;;;10.73;9.67;;;24.60;73.40;;;27.05;49.51;101095.31;5045978;28;20190;-57
2023/06/26 02:51:44;;;;;;;9.93;8.93;;;24.60;74.50;;;27.01;49.36;101098.78;5033889;28;20257;-58
2023/06/26 02:54:11;;;;;;;9.20;8.40;;;24.60;73.90;;;26.97;49.66;101086.94;5033886;28;20197;-57
2023/06/26 02:56:37;;;;;;;9.73;8.77;;;24.50;73.60;;;26.94;49.64;101092.88;5033678;28;20250;-55
2023/06/26 02:59:13;;;;;;;10.30;9.40;;;24.50;74.20;;;26.84;50.27;101088.31;5033987;28;20214;-57
2023/06/26 03:01:40;;;;;;;9.17;8.37;;;24.50;74.20;;;26.84;49.59;101083.72;5043186;28;20276;-57
2023/06/26 03:04:08;;;;;;;9.47;8.67;;;24.40;73.90;;;26.89;49.73;101084.81;5053325;28;20194;-59
2023/06/26 03:06:35;;;;;;;9.73;8.93;;;24.40;74.10;;;26.93;49.53;101085.88;5053432;28;20248;-57
2023/06/26 03:09:03;;;;;;;9.57;8.73;;;24.40;74.10;;;26.98;49.82;101078.53;5045897;28;20222;-58
2023/06/26 03:11:30;;;;;;;9.17;8.43;;;24.40;74.10;;;26.97;49.98;101082.34;5045591;28;20281;-58
2023/06/26 03:13:57;;;;;;;10.00;9.10;;;24.40;74.20;;;26.94;49.76;101072.06;5053184;28;20186;-57
2023/06/26 03:16:24;;;;;;;9.73;8.83;;;24.40;74.00;;;26.92;49.59;101076.13;5034706;28;20337;-57
2023/06/26 03:18:51;;;;;;;9.70;8.80;;;24.40;74.10;;;26.85;49.35;101068.31;5033496;28;20218;-58
2023/06/26 03:21:18;;;;;;;10.60;9.70;;;24.40;74.00;;;26.81;50.11;101068.03;5033544;28;20191;-58
2023/06/26 03:23:45;;;;;;;9.77;9.07;;;24.40;74.20;;;26.72;50.02;101066.16;5033120;28;20218;-57
2023/06/26 03:26:14;;;;;;;9.53;8.77;;;24.40;74.20;;;26.67;50.29;101071.56;5033309;28;20568;-55
2023/06/26 03:28:42;;;;;;;9.17;8.37;;;24.30;74.90;;;26.65;50.37;101069.13;5033556;28;20570;-57
2023/06/26 03:31:09;;;;;;;9.70;8.90;;;24.30;74.20;;;26.68;49.64;101067.78;5035259;28;20187;-57
2023/06/26 03:33:37;;;;;;;11.13;9.57;;;24.30;74.40;;;26.63;49.93;101065.88;5033048;28;20198;-58
2023/06/26 03:36:05;;;;;;;10.43;9.50;;;24.20;74.40;;;26.59;50.00;101058.59;5033304;28;20655;-57
2023/06/26 03:38:32;;;;;;;10.37;9.37;;;24.20;74.40;;;26.56;50.11;101065.34;5033160;28;20236;-57
2023/06/26 03:41:00;;;;;;;10.50;9.47;;;24.10;74.50;;;26.52;50.02;101058.91;5033313;28;20636;-57
2023/06/26 03:43:28;;;;;;;11.10;10.10;;;24.10;74.70;;;26.51;50.57;101068.06;5032759;28;20217;-55
2023/06/26 03:45:55;;;;;;;10.67;9.57;;;24.10;75.00;;;26.48;50.40;101054.31;5033320;28;20253;-58
2023/06/26 03:48:22;;;;;;;8.87;8.17;;;24.10;75.00;;;26.50;50.79;101052.97;5033269;28;20222;-57
2023/06/26 03:50:49;;;;;;;9.93;9.00;;;24.10;75.00;;;26.53;50.62;101044.28;5032766;28;20348;-56
2023/06/26 03:53:16;;;;;;;10.07;9.17;;;24.10;75.00;;;26.53;50.00;101038.88;5034130;28;20225;-58
2023/06/26 03:55:43;;;;;;;9.20;8.40;;;24.10;75.00;;;26.51;50.10;101046.47;5055752;28;20216;-57
2023/06/26 03:58:10;;;;;;;10.07;9.27;;;24.10;75.00;;;26.46;50.81;101038.38;5056879;28;20661;-56
2023/06/26 04:00:38;;;;;;;9.40;8.60;;;24.10;75.10;;;26.46;50.49;101042.97;5057101;28;20673;-56
2023/06/26 04:03:05;;;;;;;10.57;9.57;;;24.10;75.00;;;26.47;50.18;101039.19;5056506;28;20200;-56
2023/06/26 04:05:32;;;;;;;9.87;8.97;;;24.00;75.10;;;26.43;50.84;101033.53;5056951;28;20222;-58
2023/06/26 04:07:59;;;;;;;9.93;8.90;;;24.00;75.10;;;26.46;50.73;101038.38;5056602;28;20197;-57
2023/06/26 04:10:26;;;;;;;10.10;9.20;;;24.00;75.00;;;26.48;50.49;101032.72;5057075;28;20236;-59
2023/06/26 04:12:53;;;;;;;9.73;8.93;;;24.00;75.20;;;26.45;50.42;101036.75;5056549;28;20193;-57
2023/06/26 04:15:20;;;;;;;10.20;9.20;;;24.00;75.10;;;26.45;50.48;101035.94;5054290;28;20217;-55
2023/06/26 04:17:48;;;;;;;9.70;8.90;;;24.00;75.00;;;26.46;50.01;101034.88;5056481;28;20618;-58
2023/06/26 04:20:15;;;;;;;10.33;9.43;;;24.00;75.00;;;26.40;50.71;101034.06;5050935;28;20208;-57
2023/06/26 04:22:42;;;;;;;9.27;8.50;;;24.00;75.00;;;26.41;50.66;101034.88;5036358;28;20218;-56
2023/06/26 04:25:11;;;;;;;9.43;8.63;;;24.00;75.00;;;26.43;50.28;101030.81;5036426;28;20628;-59
2023/06/26 04:27:38;;;;;;;9.43;8.33;;;24.00;75.10;;;26.47;49.97;101029.19;5036449;28;20190;-59
2023/06/26 04:30:09;;;;;;;10.10;8.93;;;24.00;75.10;;;26.54;50.01;101024.31;5036325;28;20186;-58
2023/06/26 04:32:36;;;;;;;9.23;8.50;;;24.00;75.10;;;26.61;49.84;101026.72;5036571;28;20261;-57
2023/06/26 04:35:06;;;;;;;9.47;8.73;;;24.00;75.10;;;26.63;50.28;101028.06;5035903;28;20320;-58
2023/06/26 04:37:33;;;;;;;9.47;7.87;;;24.00;75.00;;;26.67;49.88;101022.94;5047951;28;20194;-59
2023/06/26 04:40:00;;;;;;;9.37;8.43;;;24.10;75.10;;;26.71;50.04;101016.72;5056063;28;20300;-56
2023/06/26 04:42:27;;;;;;;8.73;7.93;;;24.10;75.00;;;26.77;49.89;101018.34;5056178;28;20217;-59
2023/06/26 04:44:54;;;;;;;9.87;8.83;;;24.20;74.90;;;26.77;49.42;101012.94;5055804;28;20249;-58
2023/06/26 04:47:21;;;;;;;9.37;8.47;;;24.20;74.70;;;26.79;49.16;101016.16;5056242;28;20202;-58
2023/06/26 04:49:48;;;;;;;9.20;8.30;;;24.20;74.60;;;26.81;49.29;101010.50;5056082;28;20239;-55
2023/06/26 04:52:16;;;;;;;9.70;8.90;;;24.30;74.70;;;26.76;49.31;101016.75;5056336;28;20659;-57
2023/06/26 04:54:43;;;;;;;9.23;8.43;;;24.30;74.50;;;26.77;49.55;101017.53;5036704;28;20211;-57
2023/06/26 04:57:11;;;;;;;10.80;8.40;;;24.30;74.50;;;26.79;49.33;101010.75;5036037;28;20294;-59
2023/06/26 04:59:38;;;;;;;8.67;7.83;;;24.30;74.50;;;26.85;49.82;101004.28;5035704;28;20293;-58
2023/06/26 05:02:06;;;;;;;8.50;7.37;;;24.30;74.40;;;26.89;49.19;101003.72;5048317;28;20205;-61
2023/06/26 05:04:33;;;;;;;10.17;8.83;;;24.30;74.10;;;26.90;49.07;101010.75;5055275;28;20521;-59
2023/06/26 05:07:00;;;;;;;8.97;8.17;;;24.40;73.90;;;26.85;49.10;100998.88;5055199;28;20269;-58
2023/06/26 05:09:28;;;;;;;8.70;8.00;;;24.30;73.80;;;26.88;48.81;100997.50;5047665;28;20727;-59
2023/06/26 05:11:55;;;;;;;8.10;7.50;;;24.40;73.80;;;26.95;49.18;100991.81;5045041;28;20194;-59
2023/06/26 05:14:22;;;;;;;8.63;7.83;;;24.40;73.90;;;27.07;49.12;100995.00;5054769;28;20197;-58
2023/06/26 05:16:51;;;;;;;9.47;8.57;;;24.40;73.80;;;27.18;48.85;100997.38;5055280;28;20182;-60
2023/06/26 05:19:18;;;;;;;8.90;7.40;;;24.50;73.70;;;27.29;48.26;100985.41;5053769;28;20296;-58
2023/06/26 05:21:46;;;;;;;8.63;7.77;;;24.60;73.50;;;27.39;48.07;100981.88;5034600;28;20318;-57
2023/06/26 05:24:16;;;;;;;8.60;7.40;;;24.70;73.30;;;27.44;47.89;100979.13;5035088;28;20244;-58
2023/06/26 05:26:45;;;;;;;8.93;6.70;;;24.70;72.80;;;27.49;47.86;100962.88;5047715;28;20206;-59
2023/06/26 05:29:13;;;;;;;8.40;7.60;;;24.80;72.80;;;27.52;47.56;100970.44;5054922;28;20194;-58
2023/06/26 05:31:44;;;;;;;10.20;7.97;;;24.90;72.40;;;27.51;47.51;100963.41;5054972;28;20601;-58
2023/06/26 05:34:13;;;;;;;8.60;7.80;;;24.90;72.10;;;27.53;47.43;100966.63;5055018;28;20262;-58
2023/06/26 05:36:43;;;;;;;8.57;7.77;;;24.90;71.90;;;27.54;47.70;100973.66;5055107;28;20619;-60
2023/06/26 05:39:11;;;;;;;8.10;7.40;;;25.00;71.80;;;27.51;47.45;100979.63;5054563;28;20186;-58
2023/06/26 05:41:38;;;;;;;7.57;6.87;;;25.00;71.30;;;27.51;47.42;100980.44;5054756;28;20200;-59
2023/06/26 05:44:07;;;;;;;8.33;7.53;;;25.10;71.50;;;27.45;47.27;100978.06;5054578;28;20232;-59
2023/06/26 05:46:34;;;;;;;8.77;7.93;;;25.00;71.40;;;27.48;47.30;100980.22;5054289;28;20218;-57
2023/06/26 05:49:01;;;;;;;8.93;8.00;;;25.10;71.40;;;27.50;47.61;100978.03;5054166;28;20697;-58
2023/06/26 05:51:29;;;;;;;8.13;7.43;;;25.10;71.50;;;27.54;47.39;100970.97;5054561;28;20196;-59
2023/06/26 05:53:56;;;;;;;7.63;7.03;;;25.10;71.30;;;27.68;47.13;100976.53;5054397;28;20216;-58
2023/06/26 05:56:24;;;;;;;8.77;7.90;;;25.20;71.20;;;27.74;47.26;100967.31;5054498;28;20256;-57
2023/06/26 05:58:52;;;;;;;8.50;7.67;;;25.20;70.80;;;27.83;47.01;100966.41;5052376;28;20220;-60
2023/06/26 06:01:21;;;;;;;8.47;7.67;;;25.30;70.80;;;27.83;46.54;100969.13;5054326;28;20259;-58
2023/06/26 06:03:48;;;;;;;7.53;6.83;;;25.30;70.60;;;27.95;46.55;100964.16;5054093;28;20201;-55
2023/06/26 06:06:15;;;;;;;7.77;6.97;;;25.40;70.50;;;28.03;46.63;100962.75;5054118;28;20218;-60
2023/06/26 06:08:42;;;;;;;8.17;7.47;;;25.50;70.10;;;28.09;46.27;100967.03;5054052;28;20726;-57
2023/06/26 06:11:12;;;;;;;8.13;7.43;;;25.50;69.60;;;28.14;45.82;100973.22;5053986;28;20296;-61
2023/06/26 06:13:39;;;;;;;7.67;7.07;;;25.60;69.40;;;28.24;45.92;100966.09;5053759;28;20531;-60
2023/06/26 06:16:06;;;;;;;8.00;7.23;;;25.60;69.50;;;28.32;45.48;100968.16;5048046;28;20377;-61
2023/06/26 06:18:34;;;;;;;8.13;7.50;;;25.70;69.10;;;28.38;45.09;100961.59;5033305;28;20281;-57
2023/06/26 06:21:01;;;;;;;8.50;7.80;;;25.80;68.20;;;28.41;44.78;100955.63;5033621;28;20360;-57
2023/06/26 06:23:28;;;;;;;8.73;7.87;;;25.90;67.70;;;28.49;44.35;100963.91;5032886;28;20187;-60
2023/06/26 06:25:55;;;;;;;8.50;7.70;;;25.90;67.00;;;28.51;44.12;100966.31;5033619;28;20210;-60
2023/06/26 06:28:22;;;;;;;7.53;6.93;;;26.00;66.60;;;28.53;43.98;100964.13;5033395;28;20725;-57
2023/06/26 06:30:49;;;;;;;7.77;7.07;;;26.00;65.80;;;28.56;44.02;100958.16;5033678;28;20178;-59
2023/06/26 06:33:17;;;;;;;7.53;6.83;;;26.10;65.90;;;28.71;43.79;100960.72;5032953;28;20191;-57
2023/06/26 06:35:45;;;;;;;8.17;7.37;;;26.20;65.90;;;28.81;43.74;100955.19;5033625;28;20210;-59
2023/06/26 06:38:12;;;;;;;8.07;7.27;;;26.30;65.60;;;28.87;43.25;100959.44;5033198;28;20269;-58
2023/06/26 06:40:39;;;;;;;8.23;7.53;;;26.30;65.30;;;28.91;42.87;100963.16;5039553;28;20248;-55
2023/06/26 06:43:06;;;;;;;8.47;7.70;;;26.40;64.90;;;28.95;43.00;100966.94;5052947;28;20193;-57
2023/06/26 06:45:33;;;;;;;7.17;6.57;;;26.50;64.80;;;29.18;43.26;100962.53;5053378;28;20248;-59
2023/06/26 06:48:00;;;;;;;8.57;7.77;;;26.60;65.00;;;29.34;42.51;100964.78;5044986;28;20282;-59
2023/06/26 06:50:27;;;;;;;7.77;7.17;;;26.70;64.60;;;29.47;42.50;100968.66;5033466;28;20281;-61
2023/06/26 06:52:56;;;;;;;10.63;9.47;;;26.80;64.40;;;29.63;42.30;100971.94;5031956;28;20277;-59
2023/06/26 06:55:23;;;;;;;8.17;7.37;;;26.90;63.90;;;29.75;41.57;100975.00;5052378;28;20249;-57
2023/06/26 06:57:50;;;;;;;8.00;7.30;;;27.00;63.70;;;29.89;41.38;100976.69;5052820;28;20186;-60
2023/06/26 07:00:18;;;;;;;8.00;7.20;;;27.10;63.60;;;30.05;41.04;100969.91;5052943;28;20675;-58
2023/06/26 07:02:46;;;;;;;9.00;7.03;;;27.20;63.50;;;30.21;41.09;100966.94;5052624;28;20266;-59
2023/06/26 07:05:13;;;;;;;9.13;7.53;;;27.30;63.30;;;30.34;40.58;100966.16;5051285;28;20639;-55
2023/06/26 07:07:40;;;;;;;10.00;9.00;;;27.40;62.90;;;30.42;40.72;100971.72;5052396;28;20288;-57
2023/06/26 07:10:12;;;;;;;8.30;7.60;;;27.50;62.30;;;30.46;40.11;100977.34;5052654;28;20190;-57
2023/06/26 07:12:39;;;;;;;9.43;8.53;;;27.60;62.20;;;30.54;40.44;100980.19;5052344;28;20271;-59
2023/06/26 07:15:07;;;;;;;9.90;8.90;;;27.60;62.00;;;30.61;40.20;100983.31;5041301;28;20229;-58
2023/06/26 07:17:35;;;;;;;10.30;8.10;;;27.70;62.00;;;30.70;40.06;100980.69;5032384;28;20194;-59
2023/06/26 07:20:08;;;;;;;9.87;8.90;;;27.80;62.00;;;30.73;40.31;100982.81;5034492;28;20230;-60
2023/06/26 07:22:36;;;;;;;10.40;8.53;;;27.80;61.70;;;30.78;39.96;100991.63;5051845;28;20526;-55
2023/06/26 07:25:04;;;;;;;9.40;8.60;;;27.90;61.80;;;30.87;40.52;100996.38;5052089;28;20284;-58
2023/06/26 07:27:33;;;;;;;11.07;10.17;;;28.00;61.80;;;30.97;39.90;100998.94;5052278;28;20618;-58
2023/06/26 07:30:00;;;;;;;9.70;8.90;;;28.00;61.50;;;31.02;39.94;101009.72;5051510;28;20193;-58
2023/06/26 07:32:27;;;;;;;11.10;10.10;;;28.10;61.00;;;30.97;40.08;101013.34;5052491;28;20260;-57
2023/06/26 07:34:54;;;;;;;9.67;8.87;;;28.10;60.70;;;30.96;40.24;101016.34;5051757;28;20289;-56
2023/06/26 07:37:22;;;;;;;9.67;8.77;;;28.10;60.60;;;30.94;39.34;101013.94;5043559;28;20257;-57
2023/06/26 07:39:49;;;;;;;10.97;8.33;;;28.20;60.40;;;30.97;40.04;101017.97;5032410;28;20574;-57
2023/06/26 07:42:16;;;;;;;9.43;8.53;;;28.20;60.40;;;31.02;39.28;101020.59;5051340;28;20300;-58
2023/06/26 07:44:44;;;;;;;9.17;8.20;;;28.20;60.30;;;31.08;39.20;101013.91;5051865;28;20214;-60
2023/06/26 07:47:11;;;;;;;8.10;7.30;;;28.20;59.80;;;31.19;38.69;101016.13;5051942;28;20220;-59
2023/06/26 07:49:40;;;;;;;7.57;6.77;;;28.30;59.80;;;31.31;39.00;101018.31;5052070;28;20213;-58
2023/06/26 07:52:10;;;;;;;7.90;7.20;;;28.30;59.80;;;31.52;38.71;101024.16;5051952;28;20190;-60
2023/06/26 07:54:37;;;;;;;9.03;7.33;;;28.40;59.90;;;31.74;39.01;101027.69;5035345;28;20215;-57
2023/06/26 07:57:08;;;;;;;9.37;8.17;;;28.60;59.70;;;31.84;37.98;101032.91;5051790;28;20198;-56
2023/06/26 07:59:36;;;;;;;9.57;7.90;;;28.60;58.70;;;31.91;38.27;101043.38;5052200;28;20202;-59
2023/06/26 08:02:05;;;;;;;9.23;8.03;;;28.70;58.80;;;32.02;38.09;101061.13;5051957;28;20244;-58
2023/06/26 08:04:33;;;;;;;15.27;8.83;;;28.80;58.70;;;32.08;37.85;101071.59;5051705;28;20194;-57
2023/06/26 08:07:03;;;;;;;9.13;8.23;;;28.90;58.60;;;32.13;37.93;101078.03;5051739;28;20189;-57
2023/06/26 08:09:31;;;;;;;13.70;8.80;;;28.90;58.70;;;32.12;37.86;101071.75;5050752;28;20583;-59
2023/06/26 08:11:59;;;;;;;11.53;9.23;;;29.00;58.80;;;32.09;37.85;101062.28;5051707;28;20278;-59
2023/06/26 08:14:26;;;;;;;11.90;9.93;;;29.00;59.10;;;32.14;38.34;101063.28;5048762;28;20357;-57
2023/06/26 08:16:54;;;;;;;10.50;9.50;;;29.00;59.40;;;32.19;38.90;101063.16;5032048;28;20194;-60
2023/06/26 08:19:22;;;;;;;10.67;9.60;;;29.00;59.60;;;32.27;38.05;101079.56;5032090;28;20195;-57
2023/06/26 08:21:49;;;;;;;10.73;8.43;;;29.00;59.10;;;32.46;38.02;101082.91;5031977;28;20535;-60
2023/06/26 08:24:18;;;;;;;11.23;8.20;;;29.10;59.10;;;32.43;37.66;101088.16;5032015;28;20286;-58
2023/06/26 08:26:46;;;;;;;8.53;7.73;;;29.10;59.00;;;32.35;37.96;101095.19;5033426;28;20221;-58
2023/06/26 08:29:14;;;;;;;8.97;7.70;;;29.10;59.00;;;32.20;38.08;101111.09;5032283;28;20194;-58
2023/06/26 08:31:42;;;;;;;8.10;7.30;;;29.00;59.00;;;31.98;38.73;101115.41;5032142;28;20266;-60
2023/06/26 08:34:09;;;;;;;7.50;6.90;;;28.90;59.10;;;31.70;38.70;101135.66;5031527;28;20646;-59
2023/06/26 08:36:38;;;;;;;8.20;7.40;;;28.80;59.30;;;31.43;39.46;101141.13;5031950;28;20237;-59
2023/06/26 08:39:05;;;;;;;8.37;7.57;;;28.70;59.90;;;31.16;40.41;101146.53;5032109;28;20260;-59
2023/06/26 08:41:35;;;;;;;7.67;6.93;;;28.50;60.60;;;30.85;41.77;101149.00;5047874;28;20250;-59
2023/06/26 08:44:04;;;;;;;9.60;7.57;;;28.30;62.80;;;30.35;44.30;101158.81;5052092;28;20214;-60
2023/06/26 08:46:33;;;;;;;9.03;7.67;;;28.00;67.70;;;29.90;45.43;101151.31;5048622;28;20218;-58
2023/06/26 08:49:08;;;;;;;17.03;15.37;;;27.70;67.60;;;29.47;46.53;101148.56;5067378;28;20194;-58
2023/06/26 08:51:40;;;;;;;8.07;6.70;;;27.40;68.90;;;29.15;47.43;101147.53;5036197;28;20198;-61
2023/06/26 08:54:15;;;;;;;7.40;6.70;;;27.10;70.10;;;28.87;48.08;101149.19;5035641;28;20596;-58
2023/06/26 08:56:46;;;;;;;8.40;7.57;;;26.80;71.30;;;28.67;48.73;101157.50;5036002;28;20280;-60
2023/06/26 08:59:16;;;;;;;10.30;7.53;;;26.60;72.70;;;28.53;49.65;101170.06;5035646;28;20194;-59
2023/06/26 09:01:43;;;;;;;8.57;7.50;;;26.30;74.20;;;28.41;50.22;101172.34;5045558;28;20217;-57
2023/06/26 09:04:10;;;;;;;12.70;8.33;;;26.10;75.50;;;28.38;50.55;101170.19;5054966;28;20190;-60
2023/06/26 09:06:39;;;;;;;11.10;8.97;;;25.90;76.50;;;28.38;51.22;101178.31;5054815;28;20694;-59
2023/06/26 09:09:07;;;;;;;11.97;9.03;;;25.70;78.20;;;28.37;51.26;101182.09;5055339;28;20197;-59
2023/06/26 09:11:34;;;;;;;13.07;9.03;;;25.60;78.50;;;28.42;51.55;101187.47;5055179;28;20194;-58
2023/06/26 09:14:05;;;;;;;10.40;9.43;;;25.60;79.10;;;28.43;51.45;101202.66;5054198;28;20224;-58
2023/06/26 09:16:40;;;;;;;10.67;9.53;;;25.60;79.50;;;28.39;51.37;101213.25;5039268;28;20301;-58
2023/06/26 09:19:11;;;;;;;11.10;10.00;;;25.50;79.90;;;28.50;51.60;101219.41;5034664;28;20194;-59
2023/06/26 09:21:42;;;;;;;9.40;8.50;;;25.50;80.30;;;28.57;51.77;101209.06;5034249;28;20195;-59
2023/06/26 09:24:10;;;;;;;9.57;8.67;;;25.50;80.50;;;28.86;51.51;101207.22;5034648;28;20319;-58
2023/06/26 09:26:39;;;;;;;10.03;9.00;;;25.60;81.00;;;29.48;50.52;101204.44;5034654;28;20207;-58
2023/06/26 09:29:07;;;;;;;7.83;6.80;;;25.70;81.50;;;30.35;48.15;101207.72;5034980;28;20214;-61
2023/06/26 09:31:37;;;;;;;8.00;6.87;;;26.00;79.90;;;30.99;45.75;101211.59;5036004;28;20202;-59
2023/06/26 09:34:08;;;;;;;7.30;5.93;;;26.30;77.10;;;31.21;45.40;101219.91;5034614;28;20190;-58
2023/06/26 09:36:36;;;;;;;8.43;5.73;;;26.70;75.70;;;31.38;44.59;101214.69;5034897;28;20210;-58
2023/06/26 09:39:10;;;;;;;8.97;5.67;;;27.00;76.20;;;31.70;44.06;101217.34;5034396;28;20191;-58
2023/06/26 09:41:41;;;;;;;7.23;5.80;;;27.20;73.30;;;31.96;42.87;101218.44;5049485;28;20209;-59
2023/06/26 09:44:13;;;;;;;11.17;8.13;;;27.50;71.80;;;32.39;41.38;101227.03;5035022;28;20225;-54
2023/06/26 09:46:41;;;;;;;9.30;5.40;;;27.70;70.60;;;32.62;40.47;101227.88;5034339;28;20217;-58
2023/06/26 09:49:11;;;;;;;9.07;5.67;;;27.90;69.00;;;32.84;40.01;101236.06;5034619;28;20190;-58
2023/06/26 09:51:40;;;;;;;5.73;4.80;;;28.20;68.80;;;32.95;39.45;101234.69;5034565;28;20233;-59
2023/06/26 09:54:12;;;;;;;6.80;4.30;;;28.30;67.00;;;32.96;39.01;101236.31;5033769;28;20252;-58
2023/06/26 09:56:39;;;;;;;8.93;4.47;;;28.40;65.10;;;33.14;38.62;101235.31;5034271;28;20972;-59
2023/06/26 09:59:07;;;;;;;8.37;5.70;;;28.60;64.80;;;33.25;37.89;101242.13;5033947;28;20214;-58
2023/06/26 10:01:40;;;;;;;5.07;3.40;;;28.70;63.10;;;33.69;36.88;101234.91;5042517;28;20206;-59
2023/06/26 10:04:07;;;;;;;7.53;4.90;;;28.90;62.70;;;34.37;36.09;101234.28;5046641;28;20198;-58
2023/06/26 10:06:40;;;;;;;5.70;4.03;;;29.20;62.50;;;34.38;35.37;101244.88;5033938;28;20303;-61
2023/06/26 10:09:09;;;;;;;9.53;7.87;;;29.50;60.40;;;34.09;35.43;101252.88;5033779;28;20221;-59
2023/06/26 10:11:56;;;;;;;6.77;4.37;;;29.60;59.10;;;33.61;36.06;101254.84;5047144;28;20189;-61
2023/06/26 10:14:27;;;;;;;6.90;4.20;;;29.60;58.60;;;33.32;35.60;101250.66;5053739;28;20285;-59